.
WxDataArchive / Data Records for 2012-12-18
2012-12-17 December 2012 2012-12-19

Data Records for Tuesday, 18 December 2012

Time	Temp	Chill	HIndex	Humid	Dewpt	 Wind 	HiWind	WindDir	Rain 	Barom 
-----	----	-----	------	-----	-----	------	------	-------	-----	----- 
00:00	36.5	36.5	36.5	91	34.1	0	0	---	0.00	29.667 
00:05	36.5	36.5	36.5	91	34.1	0	1	90	0.00	29.667 
00:10	36.3	36.3	36.3	91	33.9	0	2	90	0.00	29.667 
00:15	36.2	36.2	36.2	91	33.8	0	1	90	0.00	29.667 
00:20	36.2	36.2	36.2	92	34.1	0	1	90	0.00	29.667 
00:25	36.2	36.2	36.2	92	34.1	0	1	90	0.00	29.667 
00:30	36.2	36.2	36.2	92	34.1	0	2	90	0.00	29.669 
00:35	36.2	36.2	36.2	92	34.1	0	2	90	0.01	29.669 
00:40	36.2	36.2	36.2	92	34.1	0	2	90	0.00	29.669 
00:45	36.3	36.3	36.3	92	34.2	0	1	90	0.00	29.666 
00:50	36.3	36.3	36.3	92	34.2	0	1	90	0.00	29.666 
00:55	36.3	36.3	36.3	92	34.2	0	2	90	0.00	29.666 
01:00	36.3	36.3	36.3	92	34.2	0	3	90	0.00	29.668 
01:05	36.3	36.3	36.3	92	34.2	0	3	90	0.00	29.668 
01:10	36.3	36.3	36.3	92	34.2	0	2	90	0.00	29.668 
01:15	36.5	36.5	36.5	92	34.4	0	1	90	0.00	29.670 
01:20	36.5	36.5	36.5	93	34.7	0	2	90	0.00	29.670 
01:25	36.5	36.5	36.5	93	34.7	0	3	90	0.00	29.670 
01:30	36.3	36.3	36.3	92	34.2	0	2	90	0.00	29.671 
01:35	36.3	36.3	36.3	92	34.2	0	1	90	0.00	29.671 
01:40	36.3	36.3	36.3	93	34.5	0	1	90	0.00	29.671 
01:45	36.3	36.3	36.3	93	34.5	0	0	---	0.00	29.676 
01:50	36.3	36.3	36.3	93	34.5	0	0	---	0.00	29.676 
01:55	36.3	36.3	36.3	93	34.5	0	0	---	0.00	29.676 
02:00	36.3	36.3	36.3	93	34.5	0	0	---	0.00	29.678 
02:05	36.3	36.3	36.3	93	34.5	0	0	---	0.00	29.678 
02:10	36.3	36.3	36.3	93	34.5	0	0	---	0.00	29.678 
02:15	36.3	36.3	36.3	93	34.5	0	0	---	0.00	29.679 
02:20	36.5	36.5	36.5	93	34.7	0	0	---	0.00	29.679 
02:25	36.5	36.5	36.5	93	34.7	0	0	---	0.00	29.679 
02:30	36.5	36.5	36.5	93	34.7	0	0	---	0.00	29.680 
02:35	36.6	36.6	36.6	93	34.8	0	1	90	0.00	29.680 
02:40	36.6	36.6	36.6	93	34.8	0	1	90	0.00	29.680 
02:45	36.6	36.6	36.6	93	34.8	0	1	90	0.00	29.688 
02:50	36.8	36.8	36.8	93	35.0	0	1	90	0.00	29.688 
02:55	36.8	36.8	36.8	93	35.0	0	1	90	0.00	29.688 
03:00	36.9	36.9	36.9	93	35.1	0	1	90	0.00	29.690 
03:05	36.8	36.8	36.8	93	35.0	0	2	90	0.00	29.690 
03:10	36.8	36.8	36.8	93	35.0	0	2	90	0.00	29.690 
03:15	36.8	36.8	36.8	93	35.0	0	1	90	0.00	29.694 
03:20	36.8	36.8	36.8	93	35.0	0	2	90	0.00	29.694 
03:25	36.8	36.8	36.8	93	35.0	0	2	90	0.00	29.694 
03:30	36.6	36.6	36.6	93	34.8	1	2	90	0.00	29.696 
03:35	36.5	36.5	36.5	93	34.7	1	2	90	0.00	29.696 
03:40	36.5	36.5	36.5	93	34.7	0	1	90	0.00	29.696 
03:45	36.3	36.3	36.3	93	34.5	0	2	90	0.00	29.701 
03:50	36.2	36.2	36.2	92	34.1	1	3	90	0.00	29.701 
03:55	36.2	36.2	36.2	92	34.1	0	2	90	0.00	29.701 
04:00	36.0	36.0	36.0	92	33.9	0	2	90	0.00	29.705 
04:05	36.0	36.0	36.0	92	33.9	0	1	90	0.00	29.705 
04:10	35.9	35.9	35.9	92	33.8	1	3	90	0.00	29.705 
04:15	35.9	35.9	35.9	92	33.8	0	3	90	0.00	29.704 
04:20	35.8	35.8	35.8	91	33.4	1	4	338	0.00	29.704 
04:25	35.8	35.8	35.8	91	33.4	0	2	338	0.00	29.704 
04:30	35.8	35.8	35.8	91	33.4	1	2	338	0.00	29.710 
04:35	35.6	35.6	35.6	90	33.0	0	1	338	0.00	29.710 
04:40	35.5	35.5	35.5	90	32.9	0	2	338	0.00	29.710 
04:45	35.5	35.5	35.5	90	32.9	0	2	338	0.00	29.711 
04:50	35.3	35.3	35.3	90	32.7	0	1	338	0.00	29.711 
04:55	35.2	35.2	35.2	90	32.6	0	2	338	0.00	29.711 
05:00	35.2	35.2	35.2	90	32.6	0	1	338	0.00	29.717 
05:05	35.2	35.2	35.2	89	32.3	0	2	338	0.00	29.717 
05:10	35.2	35.2	35.2	89	32.3	0	2	338	0.00	29.717 
05:15	35.2	35.2	35.2	89	32.3	0	2	338	0.00	29.725 
05:20	35.0	35.0	35.0	89	32.1	0	2	338	0.00	29.725 
05:25	35.0	35.0	35.0	89	32.1	0	0	---	0.00	29.725 
05:30	35.0	35.0	35.0	89	32.1	0	1	338	0.00	29.727 
05:35	34.9	34.9	34.9	89	32.0	0	1	338	0.00	29.727 
05:40	34.7	34.7	34.7	89	31.8	0	0	---	0.00	29.727 
05:45	34.6	34.6	34.6	89	31.7	0	0	---	0.00	29.736 
05:50	34.4	34.4	34.4	89	31.5	0	0	---	0.00	29.736 
05:55	34.4	34.4	34.4	89	31.5	0	0	---	0.00	29.736 
06:00	34.3	34.3	34.3	90	31.7	0	1	338	0.00	29.742 
06:05	34.3	34.3	34.3	90	31.7	0	0	---	0.00	29.742 
06:10	34.1	34.1	34.1	90	31.5	0	0	---	0.00	29.742 
06:15	34.0	34.0	34.0	90	31.4	0	0	---	0.00	29.742 
06:20	34.0	34.0	34.0	90	31.4	0	1	338	0.00	29.742 
06:25	33.8	33.8	33.8	90	31.2	0	1	338	0.00	29.742 
06:30	33.8	33.8	33.8	90	31.2	0	0	---	0.00	29.747 
06:35	33.7	33.7	33.7	90	31.1	0	0	---	0.00	29.747 
06:40	33.5	33.5	33.5	90	30.9	0	0	---	0.00	29.747 
06:45	33.4	33.4	33.4	90	30.8	0	1	338	0.00	29.757 
06:50	33.4	33.4	33.4	90	30.8	0	1	338	0.00	29.757 
06:55	33.2	33.2	33.2	90	30.6	0	0	---	0.00	29.757 
07:00	33.1	33.1	33.1	90	30.5	0	1	338	0.00	29.765 
07:05	32.9	32.9	32.9	90	30.3	0	0	---	0.00	29.765 
07:10	32.9	32.9	32.9	90	30.3	0	0	---	0.00	29.765 
07:15	32.8	32.8	32.8	90	30.2	0	0	---	0.00	29.774 
07:20	32.7	32.7	32.7	90	30.1	0	0	---	0.00	29.774 
07:25	32.7	32.7	32.7	91	30.4	0	1	338	0.00	29.774 
07:30	32.5	32.5	32.5	91	30.2	0	0	---	0.00	29.777 
07:35	32.5	32.5	32.5	91	30.2	0	0	---	0.00	29.777 
07:40	32.4	32.4	32.4	91	30.1	0	0	---	0.00	29.777 
07:45	32.5	32.5	32.5	91	30.2	0	0	---	0.00	29.778 
07:50	32.5	32.5	32.5	91	30.2	0	0	---	0.00	29.778 
07:55	32.5	32.5	32.5	91	30.2	0	0	---	0.00	29.778 
08:00	32.4	32.4	32.4	91	30.1	0	0	---	0.00	29.785 
08:05	32.2	32.2	32.2	91	29.9	0	0	---	0.00	29.785 
08:10	32.1	32.1	32.1	91	29.8	0	0	---	0.00	29.785 
08:15	31.9	31.9	31.9	91	29.6	0	0	---	0.00	29.799 
08:20	31.9	31.9	31.9	91	29.6	0	0	---	0.00	29.799 
08:25	31.9	31.9	31.9	91	29.6	0	0	---	0.00	29.799 
08:30	31.9	31.9	31.9	91	29.6	0	0	---	0.00	29.802 
08:35	32.1	32.1	32.1	91	29.8	0	0	---	0.00	29.802 
08:40	32.1	32.1	32.1	91	29.8	0	0	---	0.00	29.802 
08:45	32.2	32.2	32.2	92	30.1	0	0	---	0.00	29.804 
08:50	32.7	32.7	32.7	92	30.6	0	0	---	0.00	29.804 
08:55	32.9	32.9	32.9	92	30.8	0	0	---	0.00	29.804 
09:00	33.2	33.2	33.2	92	31.1	0	1	338	0.00	29.799 
09:05	33.5	33.5	33.5	92	31.4	0	2	338	0.00	29.799 
09:10	33.5	33.5	33.5	92	31.4	0	2	338	0.00	29.799 
09:15	33.7	33.7	33.7	91	31.4	0	2	338	0.00	29.811 
09:20	33.7	33.7	33.7	91	31.4	0	1	338	0.00	29.811 
09:25	33.8	33.8	33.8	91	31.5	0	2	338	0.00	29.811 
09:30	34.1	34.1	34.1	91	31.8	0	2	338	0.00	29.811 
09:35	34.3	34.3	34.3	91	32.0	0	2	338	0.01	29.811 
09:40	34.4	34.4	34.4	91	32.0	0	2	315	0.00	29.811 
09:45	34.6	34.6	34.6	90	32.0	0	2	315	0.00	29.814 
09:50	34.7	34.7	34.7	90	32.1	0	2	315	0.00	29.814 
09:55	34.9	34.9	34.9	89	32.0	0	2	315	0.00	29.814 
10:00	35.0	35.0	35.0	89	32.1	1	2	315	0.00	29.823 
10:05	35.2	35.2	35.2	88	32.0	1	3	248	0.00	29.823 
10:10	35.3	35.3	35.3	88	32.1	1	4	270	0.00	29.823 
10:15	35.6	35.6	35.6	87	32.1	0	2	270	0.00	29.825 
10:20	35.8	35.8	35.8	86	32.0	1	4	248	0.00	29.825 
10:25	36.0	36.0	36.0	86	32.2	0	2	248	0.00	29.825 
10:30	36.2	36.2	36.2	85	32.1	0	1	248	0.00	29.817 
10:35	36.5	36.5	36.5	84	32.1	1	2	248	0.00	29.817 
10:40	36.6	36.6	36.6	83	31.9	0	2	248	0.00	29.817 
10:45	37.0	37.0	37.0	83	32.3	0	2	248	0.00	29.810 
10:50	37.2	37.2	37.2	82	32.2	0	2	248	0.00	29.810 
10:55	37.2	37.2	37.2	81	31.9	1	3	248	0.00	29.810 
11:00	37.0	37.0	37.0	80	31.4	0	2	248	0.00	29.812 
11:05	37.0	37.0	37.0	80	31.4	0	2	248	0.00	29.812 
11:10	37.2	37.2	37.2	79	31.3	1	3	248	0.00	29.812 
11:15	37.5	37.5	37.5	79	31.6	1	3	248	0.00	29.826 
11:20	37.6	37.6	37.6	78	31.4	1	3	248	0.00	29.826 
11:25	37.9	37.9	37.9	78	31.7	1	2	248	0.00	29.826 
11:30	38.3	38.3	38.3	77	31.7	1	2	248	0.00	29.821 
11:35	38.8	38.8	38.8	77	32.2	1	3	248	0.00	29.821 
11:40	39.5	39.5	39.5	77	32.9	0	3	248	0.00	29.821 
11:45	39.8	39.8	39.8	75	32.5	1	3	248	0.00	29.810 
11:50	39.6	39.6	39.6	72	31.3	1	5	248	0.00	29.810 
11:55	39.3	39.3	39.3	72	31.0	1	4	248	0.00	29.810 
12:00	39.1	39.1	39.1	72	30.8	0	3	248	0.00	29.808 
12:05	38.9	38.9	38.9	73	31.0	1	3	248	0.00	29.808 
12:10	39.1	39.1	39.1	73	31.2	1	3	248	0.00	29.808 
12:15	39.2	39.2	39.2	73	31.3	1	4	248	0.00	29.808 
12:20	39.2	39.2	39.2	72	30.9	1	4	248	0.00	29.808 
12:25	39.3	39.3	39.3	73	31.4	1	3	248	0.00	29.808 
12:30	39.2	39.2	39.2	72	30.9	1	3	248	0.00	29.799 
12:35	39.2	39.2	39.2	72	30.9	1	5	248	0.00	29.799 
12:40	39.3	39.3	39.3	72	31.0	1	4	248	0.00	29.799 
12:45	39.3	39.3	39.3	71	30.7	1	5	248	0.00	29.809 
12:50	39.3	39.3	39.3	71	30.7	1	3	248	0.00	29.809 
12:55	39.3	39.3	39.3	72	31.0	1	3	248	0.00	29.809 
13:00	39.2	39.2	39.2	72	30.9	1	5	248	0.00	29.809 
13:05	39.1	39.1	39.1	72	30.8	1	4	248	0.00	29.809 
13:10	38.9	38.9	38.9	73	31.0	1	3	248	0.00	29.809 
13:15	39.1	39.1	39.1	73	31.2	1	5	248	0.00	29.795 
13:20	39.1	39.1	39.1	73	31.2	1	5	248	0.00	29.795 
13:25	39.1	39.1	39.1	73	31.2	1	4	248	0.00	29.795 
13:30	39.1	39.1	39.1	73	31.2	1	4	248	0.00	29.789 
13:35	39.1	39.1	39.1	73	31.2	1	4	248	0.00	29.789 
13:40	39.1	39.1	39.1	73	31.2	1	5	248	0.00	29.789 
13:45	39.2	39.2	39.2	73	31.3	1	4	248	0.00	29.790 
13:50	39.2	39.2	39.2	73	31.3	1	3	248	0.00	29.790 
13:55	39.2	39.2	39.2	73	31.3	1	4	248	0.00	29.790 
14:00	39.2	39.2	39.2	73	31.3	1	5	248	0.00	29.778 
14:05	39.3	39.3	39.3	74	31.7	0	2	270	0.00	29.778 
14:10	39.3	39.3	39.3	74	31.7	1	3	270	0.00	29.778 
14:15	39.3	39.3	39.3	73	31.4	1	4	248	0.00	29.775 
14:20	39.2	39.2	39.2	74	31.6	0	3	270	0.00	29.775 
14:25	39.1	39.1	39.1	74	31.5	1	4	248	0.00	29.775 
14:30	39.1	39.1	39.1	74	31.5	1	3	270	0.00	29.762 
14:35	38.9	38.9	38.9	75	31.7	1	4	45	0.00	29.762 
14:40	38.9	38.9	38.9	76	32.0	1	4	90	0.00	29.762 
14:45	38.8	38.8	38.8	75	31.6	2	5	90	0.00	29.749 
14:50	38.6	38.6	38.6	76	31.7	0	3	90	0.00	29.749 
14:55	38.6	38.6	38.6	76	31.7	1	4	90	0.00	29.749 
15:00	38.6	38.6	38.6	77	32.0	0	3	90	0.00	29.749 
15:05	38.8	38.8	38.8	77	32.2	0	1	90	0.00	29.749 
15:10	38.8	38.8	38.8	76	31.9	1	4	90	0.00	29.749 
15:15	38.8	38.8	38.8	76	31.9	1	3	112	0.00	29.747 
15:20	38.9	38.9	38.9	76	32.0	1	3	90	0.00	29.747 
15:25	38.8	38.8	38.8	76	31.9	1	4	90	0.00	29.747 
15:30	38.8	38.8	38.8	76	31.9	1	4	90	0.00	29.745 
15:35	38.8	38.8	38.8	76	31.9	1	4	90	0.00	29.745 
15:40	38.8	38.8	38.8	77	32.2	1	4	90	0.00	29.745 
15:45	38.9	38.9	38.9	76	32.0	1	4	90	0.00	29.746 
15:50	38.9	38.9	38.9	77	32.3	1	4	90	0.00	29.746 
15:55	38.8	38.8	38.8	77	32.2	2	4	45	0.00	29.746 
16:00	38.8	38.8	38.8	77	32.2	1	5	90	0.00	29.751 
16:05	38.8	38.8	38.8	77	32.2	1	4	68	0.00	29.751 
16:10	38.9	38.9	38.9	78	32.6	1	3	68	0.00	29.751 
16:15	38.9	38.9	38.9	78	32.6	1	3	112	0.00	29.747 
16:20	38.9	38.9	38.9	78	32.6	1	3	112	0.00	29.747 
16:25	38.9	38.9	38.9	77	32.3	2	7	90	0.00	29.747 
16:30	38.9	38.9	38.9	77	32.3	2	6	90	0.00	29.719 
16:35	38.8	38.8	38.8	77	32.2	2	6	90	0.00	29.719 
16:40	38.8	38.8	38.8	77	32.2	3	6	90	0.00	29.719 
16:45	38.6	38.6	38.6	78	32.3	3	9	90	0.00	29.699 
16:50	38.6	38.6	38.6	78	32.3	1	5	90	0.00	29.699 
16:55	38.6	38.6	38.6	79	32.7	2	7	90	0.00	29.699 
17:00	38.5	38.5	38.5	79	32.6	3	7	90	0.00	29.711 
17:05	38.5	38.5	38.5	79	32.6	2	5	112	0.00	29.711 
17:10	38.3	38.3	38.3	79	32.4	3	7	90	0.00	29.711 
17:15	38.3	38.3	38.3	79	32.4	1	5	90	0.00	29.714 
17:20	38.3	38.3	38.3	80	32.7	2	5	90	0.00	29.714 
17:25	38.3	38.3	38.3	80	32.7	1	5	90	0.00	29.714 
17:30	38.3	38.3	38.3	80	32.7	1	5	90	0.00	29.702 
17:35	38.3	38.3	38.3	81	33.0	2	6	112	0.00	29.702 
17:40	38.3	38.3	38.3	81	33.0	1	4	90	0.00	29.702 
17:45	38.3	38.3	38.3	81	33.0	1	5	112	0.00	29.697 
17:50	38.2	38.2	38.2	81	32.9	1	3	112	0.00	29.697 
17:55	38.2	38.2	38.2	81	32.9	2	12	90	0.00	29.697 
18:00	38.2	38.2	38.2	82	33.2	1	3	90	0.00	29.712 
18:05	38.2	38.2	38.2	82	33.2	1	4	112	0.00	29.712 
18:10	38.0	38.0	38.0	82	33.0	1	5	112	0.00	29.712 
18:15	38.0	38.0	38.0	82	33.0	2	5	90	0.00	29.694 
18:20	38.0	38.0	38.0	82	33.0	2	4	90	0.00	29.694 
18:25	37.9	37.9	37.9	82	32.9	1	6	90	0.00	29.694 
18:30	37.9	37.9	37.9	82	32.9	1	4	90	0.00	29.720 
18:35	37.9	37.9	37.9	82	32.9	0	2	90	0.00	29.720 
18:40	37.8	37.8	37.8	83	33.1	0	2	90	0.00	29.720 
18:45	37.8	37.8	37.8	83	33.1	0	2	90	0.00	29.733 
18:50	37.8	37.8	37.8	83	33.1	0	2	90	0.00	29.733 
18:55	37.9	37.9	37.9	83	33.2	0	3	90	0.00	29.733 
19:00	37.9	37.9	37.9	83	33.2	1	3	270	0.00	29.735 
19:05	37.9	37.9	37.9	83	33.2	1	3	45	0.00	29.735 
19:10	37.9	37.9	37.9	83	33.2	1	3	45	0.00	29.735 
19:15	37.9	37.9	37.9	83	33.2	1	4	90	0.00	29.735 
19:20	37.9	37.9	37.9	83	33.2	1	2	90	0.00	29.735 
19:25	37.9	37.9	37.9	83	33.2	0	1	90	0.00	29.735 
19:30	37.9	37.9	37.9	83	33.2	1	5	90	0.00	29.737 
19:35	37.9	37.9	37.9	83	33.2	1	3	112	0.00	29.737 
19:40	37.9	37.9	37.9	83	33.2	1	4	112	0.00	29.737 
19:45	37.9	37.9	37.9	83	33.2	0	2	112	0.00	29.736 
19:50	37.9	37.9	37.9	83	33.2	1	3	112	0.00	29.736 
19:55	37.9	37.9	37.9	83	33.2	0	2	112	0.00	29.736 
20:00	37.9	37.9	37.9	83	33.2	1	4	90	0.00	29.734 
20:05	37.9	37.9	37.9	83	33.2	1	3	90	0.00	29.734 
20:10	37.9	37.9	37.9	84	33.5	1	5	90	0.00	29.734 
20:15	37.9	37.9	37.9	84	33.5	1	3	112	0.00	29.732 
20:20	37.9	37.9	37.9	84	33.5	1	2	135	0.00	29.732 
20:25	37.9	37.9	37.9	84	33.5	1	5	90	0.00	29.732 
20:30	37.9	37.9	37.9	84	33.5	2	5	90	0.00	29.726 
20:35	37.9	37.9	37.9	84	33.5	1	3	90	0.00	29.726 
20:40	37.9	37.9	37.9	84	33.5	1	3	22	0.00	29.726 
20:45	37.9	37.9	37.9	84	33.5	1	3	22	0.00	29.722 
20:50	37.9	37.9	37.9	84	33.5	1	5	112	0.00	29.722 
20:55	37.9	37.9	37.9	84	33.5	1	5	112	0.00	29.722 
21:00	37.9	37.9	37.9	84	33.5	1	4	90	0.00	29.716 
21:05	37.9	37.9	37.9	84	33.5	1	2	90	0.00	29.716 
21:10	37.9	37.9	37.9	85	33.8	1	5	90	0.00	29.716 
21:15	37.9	37.9	37.9	85	33.8	1	4	90	0.00	29.710 
21:20	37.9	37.9	37.9	85	33.8	1	3	90	0.00	29.710 
21:25	37.9	37.9	37.9	85	33.8	1	4	90	0.00	29.710 
21:30	37.8	37.8	37.8	86	34.0	0	2	90	0.00	29.706 
21:35	37.8	37.8	37.8	86	34.0	1	4	90	0.00	29.706 
21:40	37.8	37.8	37.8	86	34.0	0	3	90	0.00	29.706 
21:45	37.8	37.8	37.8	86	34.0	0	2	90	0.00	29.701 
21:50	37.8	37.8	37.8	87	34.3	0	4	90	0.00	29.701 
21:55	37.8	37.8	37.8	87	34.3	1	2	90	0.00	29.701 
22:00	37.8	37.8	37.8	87	34.3	1	3	90	0.00	29.699 
22:05	37.8	37.8	37.8	87	34.3	0	3	90	0.00	29.699 
22:10	37.8	37.8	37.8	87	34.3	0	2	90	0.00	29.699 
22:15	37.8	37.8	37.8	87	34.3	0	2	90	0.00	29.696 
22:20	37.8	37.8	37.8	87	34.3	0	2	90	0.00	29.696 
22:25	37.8	37.8	37.8	87	34.3	0	2	90	0.00	29.696 
22:30	37.8	37.8	37.8	87	34.3	0	2	90	0.00	29.693 
22:35	37.8	37.8	37.8	87	34.3	0	2	90	0.00	29.693 
22:40	37.8	37.8	37.8	87	34.3	0	2	90	0.00	29.693 
22:45	37.8	37.8	37.8	87	34.3	0	1	90	0.00	29.696 
22:50	37.8	37.8	37.8	88	34.6	0	3	90	0.00	29.696 
22:55	37.8	37.8	37.8	88	34.6	0	1	90	0.00	29.696 
23:00	37.8	37.8	37.8	88	34.6	0	1	90	0.00	29.695 
23:05	37.8	37.8	37.8	88	34.6	0	1	90	0.00	29.695 
23:10	37.8	37.8	37.8	88	34.6	0	0	---	0.00	29.695 
23:15	37.6	37.6	37.6	88	34.4	0	0	---	0.00	29.695 
23:20	37.6	37.6	37.6	88	34.4	0	0	---	0.00	29.695 
23:25	37.6	37.6	37.6	88	34.4	0	1	90	0.00	29.695 
23:30	37.6	37.6	37.6	88	34.4	0	0	---	0.00	29.705 
23:35	37.8	37.8	37.8	88	34.6	0	0	---	0.00	29.705 
23:40	37.8	37.8	37.8	88	34.6	0	0	---	0.00	29.705 
23:45	37.8	37.8	37.8	88	34.6	0	0	---	0.00	29.705 
23:50	37.8	37.8	37.8	88	34.6	0	0	---	0.00	29.705 
23:55	37.8	37.8	37.8	88	34.6	0	0	---	0.00	29.705 

CoCoRaHS
IN-AL-39
A2 Web Hosting
Creative Commons License
GoDaddy
search engine by freefind advanced

loaded 2018-11-17 14:36:09 • last modified 2010-11-18 10:43:29
Privacy PolicyDisclaimer
• wx.awcolley.com is powered by PmWiki v.2002016 •
• all content (unless otherwise noted) © 2018 A W Colley